Time;durP1;ratioP1;P1;durP2;ratioP2;P2;SDS_P1;SDS_P2;PMS_P1;PMS_P2;Temp;Humidity;BMP_temperature;BMP_pressure;BME280_temperature;BME280_humidity;BME280_pressure;Samples;Min_cycle;Max_cycle;Signal;HPM_P1;HPM_P2
2022/08/04 00:01:45;;;;;;;14.10;7.85;;;26.40;52.70;;;;;;5016666;28;20088;-75
2022/08/04 00:04:10;;;;;;;17.50;7.95;;;26.40;52.60;;;;;;5034289;28;20029;-75
2022/08/04 00:07:11;;;;;;;15.10;7.50;;;26.40;52.60;;;;;;4999861;28;20112;-75
2022/08/04 00:09:54;;;;;;;13.93;7.80;;;26.40;52.50;;;;;;5029236;28;20079;-75
2022/08/04 00:12:24;;;;;;;14.85;7.72;;;26.40;52.50;;;;;;5034304;28;20460;-75
2022/08/04 00:14:54;;;;;;;13.13;7.25;;;26.40;52.40;;;;;;5034191;28;20025;-76
2022/08/04 00:17:24;;;;;;;15.55;7.28;;;26.40;52.40;;;;;;5016198;28;20036;-76
2022/08/04 00:19:58;;;;;;;12.80;7.45;;;26.30;52.30;;;;;;5015907;28;20370;-76
2022/08/04 00:22:28;;;;;;;12.48;7.38;;;26.30;52.30;;;;;;5033801;28;20044;-75
2022/08/04 00:24:56;;;;;;;11.80;6.88;;;26.40;52.30;;;;;;5016329;28;20034;-76
2022/08/04 00:27:22;;;;;;;15.38;7.20;;;26.40;52.30;;;;;;5015998;28;20036;-75
2022/08/04 00:29:48;;;;;;;16.30;7.35;;;26.30;52.20;;;;;;5016093;28;20486;-75
2022/08/04 00:32:17;;;;;;;10.77;6.70;;;26.30;52.20;;;;;;5016140;28;20112;-76
2022/08/04 00:34:43;;;;;;;12.30;6.88;;;26.30;52.20;;;;;;5033807;28;20025;-76
2022/08/04 00:37:09;;;;;;;12.63;7.03;;;26.30;52.20;;;;;;5015607;28;20401;-75
2022/08/04 00:39:36;;;;;;;10.95;6.90;;;26.30;52.20;;;;;;5015306;28;20482;-76
2022/08/04 00:42:17;;;;;;;14.15;7.03;;;26.30;52.20;;;;;;5015839;28;20482;-75
2022/08/04 00:45:02;;;;;;;15.52;7.18;;;26.30;52.30;;;;;;5015945;28;20026;-75
2022/08/04 00:48:01;;;;;;;12.65;7.40;;;26.30;52.20;;;;;;5015951;28;20033;-75
2022/08/04 00:50:45;;;;;;;13.85;7.00;;;26.30;52.20;;;;;;4962724;28;20547;-77
2022/08/04 00:53:39;;;;;;;11.40;6.75;;;26.30;52.20;;;;;;5015731;28;20025;-74
2022/08/04 00:56:42;;;;;;;10.90;6.20;;;26.30;52.20;;;;;;5032974;28;20032;-75
2022/08/04 00:59:13;;;;;;;13.30;7.43;;;26.30;52.20;;;;;;5033250;28;20025;-75
2022/08/04 01:02:00;;;;;;;16.48;7.45;;;26.30;52.20;;;;;;5015715;28;20037;-75
2022/08/04 01:04:48;;;;;;;11.82;6.38;;;26.30;52.20;;;;;;4983461;28;20025;-76
2022/08/04 01:07:45;;;;;;;11.13;6.82;;;26.30;52.30;;;;;;5015569;28;20363;-76
2022/08/04 01:10:33;;;;;;;11.15;6.82;;;26.30;52.30;;;;;;5015379;28;20084;-76
2022/08/04 01:13:35;;;;;;;14.93;6.88;;;26.30;52.30;;;;;;5033145;28;20026;-75
2022/08/04 01:16:10;;;;;;;12.23;6.45;;;26.20;52.20;;;;;;5032516;28;20044;-75
2022/08/04 01:18:58;;;;;;;10.35;6.25;;;26.20;52.20;;;;;;4998841;28;20033;-75
2022/08/04 01:21:30;;;;;;;10.65;6.30;;;26.20;52.20;;;;;;5032596;28;20390;-76
2022/08/04 01:24:08;;;;;;;10.93;6.68;;;26.20;52.20;;;;;;5032849;28;20033;-76
2022/08/04 01:26:40;;;;;;;11.75;6.60;;;26.30;52.20;;;;;;5015265;28;20036;-75
2022/08/04 01:29:14;;;;;;;13.13;6.93;;;26.20;52.20;;;;;;5032771;28;20049;-76
2022/08/04 01:32:01;;;;;;;13.48;7.20;;;26.20;52.20;;;;;;5032685;28;20547;-76
2022/08/04 01:34:41;;;;;;;11.60;6.38;;;26.20;52.20;;;;;;5032570;28;20033;-75
2022/08/04 01:37:13;;;;;;;12.70;6.47;;;26.20;52.20;;;;;;4998390;28;20078;-75
2022/08/04 01:39:56;;;;;;;9.60;6.00;;;26.20;52.10;;;;;;5032487;28;20461;-75
2022/08/04 01:42:25;;;;;;;11.48;6.10;;;26.20;52.10;;;;;;5014753;28;20064;-75
2022/08/04 01:44:54;;;;;;;12.57;6.07;;;26.20;52.10;;;;;;5015163;28;20034;-75
2022/08/04 01:47:20;;;;;;;10.70;5.87;;;26.20;52.10;;;;;;5014453;28;20500;-75
2022/08/04 01:49:49;;;;;;;13.40;5.88;;;26.20;52.00;;;;;;5031959;28;20268;-75
2022/08/04 01:52:17;;;;;;;8.20;5.37;;;26.30;52.10;;;;;;5031961;28;20490;-75
2022/08/04 01:54:47;;;;;;;10.48;5.80;;;26.20;52.00;;;;;;5015125;28;20044;-75
2022/08/04 01:57:17;;;;;;;8.95;5.43;;;26.20;52.10;;;;;;5031914;28;20075;-74
2022/08/04 01:59:44;;;;;;;9.50;5.88;;;26.20;52.10;;;;;;5013883;28;20042;-75
2022/08/04 02:02:10;;;;;;;12.80;5.93;;;26.20;52.10;;;;;;5014310;28;20045;-75
2022/08/04 02:04:37;;;;;;;10.82;5.35;;;26.20;52.20;;;;;;5032609;28;20025;-75
2022/08/04 02:07:39;;;;;;;9.82;5.68;;;26.20;52.20;;;;;;5031927;28;20069;-75
2022/08/04 02:10:10;;;;;;;10.30;5.47;;;26.20;52.20;;;;;;4998038;28;20120;-75
2022/08/04 02:13:05;;;;;;;11.90;5.63;;;26.20;52.30;;;;;;5032082;28;20351;-76
2022/08/04 02:16:23;;;;;;;8.90;5.35;;;26.20;52.20;;;;;;5031697;28;20466;-75
2022/08/04 02:19:08;;;;;;;8.77;5.47;;;26.20;52.30;;;;;;4916817;29;20047;-75
2022/08/04 02:21:36;;;;;;;11.23;4.88;;;26.20;52.20;;;;;;4916396;29;20070;-75
2022/08/04 02:24:09;;;;;;;12.55;5.40;;;26.20;52.20;;;;;;4985658;28;20041;-75
2022/08/04 02:26:37;;;;;;;11.73;5.35;;;26.20;52.20;;;;;;5013614;28;20439;-75
2022/08/04 02:29:19;;;;;;;7.13;4.85;;;26.20;52.10;;;;;;4981884;28;20390;-76
2022/08/04 02:32:08;;;;;;;9.63;5.18;;;26.10;52.00;;;;;;5014212;28;20068;-75
2022/08/04 02:34:52;;;;;;;9.18;5.28;;;26.20;52.10;;;;;;5031828;28;20026;-75
2022/08/04 02:37:20;;;;;;;10.35;5.28;;;26.10;52.10;;;;;;5013753;28;20481;-75
2022/08/04 02:39:48;;;;;;;8.80;5.25;;;26.20;52.10;;;;;;5031632;28;20022;-75
2022/08/04 02:42:15;;;;;;;9.57;5.50;;;26.20;52.10;;;;;;5014068;28;20394;-75
2022/08/04 02:44:47;;;;;;;6.72;4.63;;;26.10;52.00;;;;;;5014154;28;20263;-75
2022/08/04 02:47:13;;;;;;;8.25;4.55;;;26.10;52.00;;;;;;5031356;28;20022;-76
2022/08/04 02:49:41;;;;;;;10.90;5.13;;;26.10;52.00;;;;;;5014219;28;20032;-75
2022/08/04 02:52:11;;;;;;;9.30;5.03;;;26.10;52.00;;;;;;5031622;28;20029;-75
2022/08/04 02:54:44;;;;;;;7.65;4.72;;;26.10;52.00;;;;;;5031563;28;20114;-75
2022/08/04 02:57:14;;;;;;;8.20;4.32;;;26.20;52.00;;;;;;5031324;28;20061;-75
2022/08/04 03:00:05;;;;;;;9.98;4.55;;;26.10;51.90;;;;;;5031585;28;20029;-75
2022/08/04 03:02:55;;;;;;;11.35;5.63;;;26.10;51.80;;;;;;5033594;28;20022;-75
2022/08/04 03:05:49;;;;;;;8.02;4.72;;;26.10;51.90;;;;;;4992137;28;20041;-75
2022/08/04 03:08:52;;;;;;;12.32;4.35;;;26.10;51.80;;;;;;4997432;28;20037;-75
2022/08/04 03:12:03;;;;;;;11.73;4.72;;;26.10;51.60;;;;;;5017546;28;20156;-75
2022/08/04 03:15:07;;;;;;;6.82;4.47;;;26.10;51.70;;;;;;5035259;28;20025;-75
2022/08/04 03:17:46;;;;;;;7.45;4.65;;;26.10;51.60;;;;;;5018633;28;20033;-75
2022/08/04 03:20:15;;;;;;;9.07;4.93;;;26.20;51.70;;;;;;5017582;28;20040;-75
2022/08/04 03:23:16;;;;;;;9.80;4.60;;;26.10;51.60;;;;;;5035040;28;20371;-75
2022/08/04 03:26:01;;;;;;;6.18;4.20;;;26.10;51.60;;;;;;5034657;28;20276;-75
2022/08/04 03:28:59;;;;;;;6.65;4.55;;;26.10;51.70;;;;;;5001204;28;20047;-75
2022/08/04 03:31:43;;;;;;;8.20;4.45;;;26.10;51.80;;;;;;5017352;28;20163;-75
2022/08/04 03:34:17;;;;;;;8.70;4.82;;;26.10;51.80;;;;;;5035013;28;20486;-75
2022/08/04 03:37:02;;;;;;;7.53;4.05;;;26.10;51.90;;;;;;5017048;28;20037;-75
2022/08/04 03:39:40;;;;;;;7.65;4.10;;;26.10;51.80;;;;;;5034740;28;20079;-76
2022/08/04 03:42:43;;;;;;;11.27;4.55;;;26.10;51.80;;;;;;5034744;28;20087;-75
2022/08/04 03:45:52;;;;;;;8.93;4.82;;;26.10;51.90;;;;;;5034358;28;20037;-75
2022/08/04 03:48:33;;;;;;;8.20;4.65;;;26.00;51.80;;;;;;5017058;28;20029;-75
2022/08/04 03:54:22;;;;;;;5.57;4.35;;;26.00;52.00;;;;;;5034525;28;20037;-75
2022/08/04 03:57:11;;;;;;;6.35;4.60;;;26.10;52.00;;;;;;5015669;28;20448;-74
2022/08/04 03:59:37;;;;;;;9.60;4.53;;;26.00;52.00;;;;;;5034406;28;20030;-75
2022/08/04 04:02:17;;;;;;;5.93;4.13;;;26.00;52.10;;;;;;5034313;28;20037;-75
2022/08/04 04:05:22;;;;;;;7.63;4.32;;;26.00;52.10;;;;;;5016673;28;20038;-75
2022/08/04 04:08:06;;;;;;;8.23;4.10;;;26.00;52.10;;;;;;5000826;28;20025;-75
2022/08/04 04:11:18;;;;;;;8.77;5.05;;;26.10;52.30;;;;;;5034122;28;20076;-76
2022/08/04 04:13:53;;;;;;;7.65;5.32;;;26.00;52.20;;;;;;4979624;28;20493;-76
2022/08/04 04:16:41;;;;;;;12.13;6.20;;;26.00;52.20;;;;;;5033873;28;20148;-76
2022/08/04 04:19:27;;;;;;;11.95;5.47;;;26.00;52.30;;;;;;5034060;28;20100;-76
2022/08/04 04:22:13;;;;;;;11.15;5.78;;;26.00;52.30;;;;;;5016424;28;20413;-75
2022/08/04 04:24:57;;;;;;;10.15;5.78;;;26.00;52.40;;;;;;5034083;28;20124;-75
2022/08/04 04:28:09;;;;;;;10.48;5.90;;;26.00;52.40;;;;;;5033755;28;20025;-76
2022/08/04 04:31:05;;;;;;;11.80;6.85;;;26.00;52.40;;;;;;5016090;28;20543;-76
2022/08/04 04:33:56;;;;;;;8.77;5.55;;;26.00;52.50;;;;;;5033794;28;20367;-74
2022/08/04 04:36:25;;;;;;;10.52;6.50;;;26.00;52.40;;;;;;5033371;28;20033;-75
2022/08/04 04:39:19;;;;;;;11.63;6.57;;;26.10;52.60;;;;;;5033734;28;20075;-76
2022/08/04 04:41:57;;;;;;;12.32;6.50;;;26.00;52.50;;;;;;5033843;28;20060;-76
2022/08/04 04:44:28;;;;;;;12.50;6.53;;;26.00;52.60;;;;;;5033586;28;20044;-75
2022/08/04 04:47:06;;;;;;;11.05;6.15;;;26.10;52.60;;;;;;5033333;28;20033;-75
2022/08/04 04:49:53;;;;;;;10.18;6.10;;;26.00;52.60;;;;;;5033506;28;20065;-76
2022/08/04 04:52:40;;;;;;;12.52;5.97;;;26.00;52.60;;;;;;5016013;28;20048;-76
2022/08/04 04:55:26;;;;;;;11.95;6.43;;;26.10;52.70;;;;;;5033252;28;20493;-75
2022/08/04 04:57:56;;;;;;;9.20;5.68;;;26.10;52.60;;;;;;5015777;28;20037;-76
2022/08/04 05:00:30;;;;;;;13.27;6.18;;;26.10;52.70;;;;;;5033283;28;20025;-75
2022/08/04 05:03:04;;;;;;;13.45;6.47;;;26.00;52.60;;;;;;4973388;28;20235;-75
2022/08/04 05:05:54;;;;;;;11.85;6.35;;;26.00;52.60;;;;;;4957366;28;20372;-75
2022/08/04 05:08:52;;;;;;;7.50;5.75;;;26.00;52.60;;;;;;4995496;28;20037;-76
2022/08/04 05:11:37;;;;;;;11.60;5.65;;;26.00;52.70;;;;;;4995420;28;20037;-76
2022/08/04 05:14:32;;;;;;;6.85;4.90;;;26.00;52.70;;;;;;4995361;28;20026;-76
2022/08/04 05:17:11;;;;;;;10.80;6.38;;;26.00;52.70;;;;;;5010317;28;20037;-76
2022/08/04 05:20:04;;;;;;;9.93;5.68;;;26.00;52.60;;;;;;5013259;28;20446;-76
2022/08/04 05:22:38;;;;;;;11.57;5.53;;;26.00;52.60;;;;;;5013052;28;20032;-75
2022/08/04 05:25:21;;;;;;;9.20;5.45;;;26.00;53.30;;;;;;5012796;28;20030;-75
2022/08/04 05:28:01;;;;;;;9.52;5.47;;;26.00;52.60;;;;;;4995478;28;20026;-75
2022/08/04 05:30:32;;;;;;;10.52;6.07;;;26.00;52.60;;;;;;4995557;28;20104;-75
2022/08/04 05:33:03;;;;;;;7.93;5.47;;;26.00;52.60;;;;;;4995512;28;20026;-75
2022/08/04 05:35:50;;;;;;;9.20;5.07;;;26.00;52.60;;;;;;4995304;28;20057;-75
2022/08/04 05:38:21;;;;;;;9.70;5.38;;;26.00;52.70;;;;;;4995215;28;20026;-76
2022/08/04 05:40:48;;;;;;;8.18;5.40;;;26.00;52.60;;;;;;4995126;28;20052;-76
2022/08/04 05:43:15;;;;;;;9.20;5.45;;;26.00;52.70;;;;;;5012647;28;20030;-76
2022/08/04 05:45:42;;;;;;;10.48;5.45;;;26.00;52.70;;;;;;4995169;28;20519;-76
2022/08/04 05:48:09;;;;;;;8.70;5.22;;;26.10;52.70;;;;;;4995149;28;20104;-76
2022/08/04 05:50:35;;;;;;;8.55;5.22;;;26.00;52.70;;;;;;4995006;28;20072;-75
2022/08/04 05:53:02;;;;;;;7.50;5.35;;;26.10;52.70;;;;;;5012548;28;20018;-75
2022/08/04 05:55:29;;;;;;;10.63;5.35;;;26.00;52.60;;;;;;5012295;28;20120;-75
2022/08/04 05:57:57;;;;;;;8.80;5.30;;;26.10;52.70;;;;;;5012438;28;20105;-75
2022/08/04 06:00:25;;;;;;;9.75;5.28;;;26.10;52.70;;;;;;4995146;28;20324;-76
2022/08/04 06:02:52;;;;;;;8.48;4.95;;;26.10;52.60;;;;;;4978714;28;20061;-75
2022/08/04 06:05:18;;;;;;;7.93;4.88;;;26.10;52.60;;;;;;5012360;28;20114;-76
2022/08/04 06:07:45;;;;;;;7.72;5.32;;;26.10;52.60;;;;;;4978546;28;20032;-75
2022/08/04 06:10:11;;;;;;;10.15;4.95;;;26.10;52.60;;;;;;4994937;28;20505;-75
2022/08/04 06:12:48;;;;;;;8.50;5.18;;;26.10;52.50;;;;;;5012288;28;20113;-75
2022/08/04 06:15:18;;;;;;;9.57;5.05;;;26.20;52.50;;;;;;5012094;28;20059;-75
2022/08/04 06:17:51;;;;;;;9.70;4.82;;;26.20;52.50;;;;;;5012273;28;20025;-75
2022/08/04 06:20:19;;;;;;;16.23;5.53;;;26.20;52.50;;;;;;4994545;28;20088;-75
2022/08/04 06:22:51;;;;;;;7.93;4.80;;;26.20;52.50;;;;;;4994388;28;20474;-75
2022/08/04 06:25:21;;;;;;;11.68;5.72;;;26.20;52.50;;;;;;5011889;28;20026;-75
2022/08/04 06:27:49;;;;;;;9.13;5.70;;;26.20;52.50;;;;;;5012045;28;20022;-75
2022/08/04 06:30:17;;;;;;;9.48;5.80;;;26.20;52.60;;;;;;5012202;28;20101;-75
2022/08/04 06:32:54;;;;;;;11.80;6.45;;;26.20;52.60;;;;;;5011918;28;20038;-77
2022/08/04 06:35:22;;;;;;;12.77;7.07;;;26.20;52.60;;;;;;5011883;28;20052;-77
2022/08/04 06:37:49;;;;;;;11.57;6.25;;;26.20;52.60;;;;;;4994437;28;20072;-77
2022/08/04 06:40:18;;;;;;;11.30;7.25;;;26.20;52.60;;;;;;5012114;28;20037;-77
2022/08/04 06:42:45;;;;;;;11.45;6.35;;;26.20;52.80;;;;;;5011817;28;20041;-78
2022/08/04 06:45:13;;;;;;;8.90;6.22;;;26.20;52.90;;;;;;4994129;28;20117;-78
2022/08/04 06:47:40;;;;;;;13.68;5.93;;;26.20;52.90;;;;;;4993888;28;20041;-78
2022/08/04 06:50:08;;;;;;;8.50;5.57;;;26.20;52.70;;;;;;4994682;28;20022;-78
2022/08/04 06:52:35;;;;;;;10.65;6.15;;;26.30;52.50;;;;;;4994519;28;20500;-77
2022/08/04 06:55:01;;;;;;;11.35;6.32;;;26.30;52.30;;;;;;5011723;28;20394;-78
2022/08/04 06:57:29;;;;;;;10.75;5.97;;;26.30;51.80;;;;;;4994157;28;20041;-76
2022/08/04 06:59:59;;;;;;;12.45;6.22;;;26.40;51.80;;;;;;5011666;28;20425;-76
2022/08/04 07:02:28;;;;;;;13.10;6.25;;;26.30;51.80;;;;;;4994084;28;20121;-76
2022/08/04 07:04:55;;;;;;;12.52;6.10;;;26.30;52.00;;;;;;5011688;28;20030;-76
2022/08/04 07:07:23;;;;;;;11.23;5.97;;;26.30;51.70;;;;;;4994032;28;20041;-76
2022/08/04 07:09:49;;;;;;;10.30;6.28;;;26.30;51.80;;;;;;5011482;28;20029;-77
2022/08/04 07:12:19;;;;;;;12.00;6.07;;;26.30;51.90;;;;;;5011692;28;20147;-76
2022/08/04 07:14:46;;;;;;;11.80;6.20;;;26.30;52.10;;;;;;5011475;28;20030;-76
2022/08/04 07:17:14;;;;;;;13.73;6.53;;;26.40;51.80;;;;;;4977682;28;20498;-76
2022/08/04 07:19:40;;;;;;;12.57;5.90;;;26.40;51.70;;;;;;5011505;28;20104;-76
2022/08/04 07:22:08;;;;;;;12.75;6.70;;;26.40;51.70;;;;;;4977869;28;20112;-76
2022/08/04 07:24:36;;;;;;;8.68;5.95;;;26.40;51.50;;;;;;5011484;28;20030;-75
2022/08/04 07:27:04;;;;;;;11.75;6.20;;;26.40;51.30;;;;;;4993674;28;20438;-75
2022/08/04 07:29:30;;;;;;;10.13;5.15;;;26.50;51.30;;;;;;4993896;28;20030;-75
2022/08/04 07:31:57;;;;;;;9.25;5.00;;;26.50;51.30;;;;;;5011494;28;20029;-75
2022/08/04 07:34:23;;;;;;;9.88;5.35;;;26.40;50.60;;;;;;5011426;28;20030;-75
2022/08/04 07:36:54;;;;;;;10.50;5.57;;;26.40;51.50;;;;;;5011166;28;20052;-75
2022/08/04 07:39:21;;;;;;;10.15;5.50;;;26.50;51.40;;;;;;5011373;28;20057;-74
2022/08/04 07:41:47;;;;;;;9.85;5.47;;;26.50;51.10;;;;;;4993987;28;20052;-75
2022/08/04 07:44:14;;;;;;;13.02;5.32;;;26.60;51.20;;;;;;5011223;28;20491;-75
2022/08/04 07:46:41;;;;;;;9.20;5.28;;;26.60;50.80;;;;;;5010910;28;20056;-75
2022/08/04 07:49:08;;;;;;;10.88;4.93;;;26.50;51.20;;;;;;4978923;28;20040;-75
2022/08/04 07:51:36;;;;;;;9.30;5.10;;;26.50;50.70;;;;;;5014683;28;20036;-75
2022/08/04 07:54:04;;;;;;;10.02;4.65;;;26.50;51.10;;;;;;5014637;28;20159;-76
2022/08/04 07:56:35;;;;;;;7.20;4.68;;;26.50;51.00;;;;;;4996851;28;20120;-76
2022/08/04 07:59:02;;;;;;;11.20;4.30;;;26.60;50.60;;;;;;5014658;28;20045;-76
2022/08/04 08:01:29;;;;;;;8.40;4.10;;;26.60;50.70;;;;;;4997103;28;20029;-76
2022/08/04 08:03:56;;;;;;;5.13;4.18;;;26.60;51.10;;;;;;4997064;28;20471;-76
2022/08/04 08:06:23;;;;;;;8.02;3.90;;;26.70;51.50;;;;;;4996774;28;20022;-76
2022/08/04 08:08:49;;;;;;;8.65;4.05;;;26.70;50.60;;;;;;5014239;28;20033;-76
2022/08/04 08:11:15;;;;;;;11.32;5.55;;;26.80;50.50;;;;;;5014341;28;20037;-75
2022/08/04 08:13:45;;;;;;;11.25;5.90;;;26.70;50.60;;;;;;5014295;28;20113;-76
2022/08/04 08:16:11;;;;;;;9.48;5.47;;;26.70;50.50;;;;;;5014041;28;20037;-75
2022/08/04 08:18:40;;;;;;;13.00;5.75;;;26.70;50.40;;;;;;4996743;28;20026;-75
2022/08/04 08:21:06;;;;;;;8.63;5.07;;;26.70;50.50;;;;;;5013998;28;20108;-76
2022/08/04 08:23:34;;;;;;;8.18;4.85;;;26.70;50.00;;;;;;4996564;28;20037;-75
2022/08/04 08:26:00;;;;;;;10.13;4.78;;;26.70;50.00;;;;;;4996225;28;20026;-75
2022/08/04 08:28:26;;;;;;;6.13;4.43;;;26.70;50.20;;;;;;5014155;28;20033;-75
2022/08/04 08:30:54;;;;;;;11.60;5.03;;;26.70;50.60;;;;;;5013986;28;20434;-75
2022/08/04 08:33:22;;;;;;;9.38;4.72;;;26.70;50.80;;;;;;4996084;28;20026;-76
2022/08/04 08:36:00;;;;;;;7.88;4.07;;;26.70;50.80;;;;;;4979919;28;20022;-74
2022/08/04 08:38:52;;;;;;;9.95;4.70;;;26.70;50.70;;;;;;5013954;28;20105;-76
2022/08/04 08:41:51;;;;;;;9.18;3.90;;;26.80;50.60;;;;;;4980012;28;20052;-75
2022/08/04 08:44:58;;;;;;;6.30;4.13;;;26.80;50.20;;;;;;5013894;28;20049;-76
2022/08/04 08:47:42;;;;;;;10.85;4.53;;;26.80;50.40;;;;;;5013662;28;20037;-76
2022/08/04 08:50:20;;;;;;;8.57;4.20;;;26.70;50.30;;;;;;4995969;28;20444;-76
2022/08/04 08:53:10;;;;;;;7.00;3.78;;;26.80;50.50;;;;;;4996059;28;20375;-76
2022/08/04 08:56:01;;;;;;;10.70;4.25;;;26.70;50.50;;;;;;4995721;28;20030;-76
2022/08/04 08:59:03;;;;;;;10.30;4.20;;;26.70;50.50;;;;;;5012859;28;20045;-75
2022/08/04 09:01:52;;;;;;;9.07;4.20;;;26.80;50.40;;;;;;5013003;28;20040;-76
2022/08/04 09:04:47;;;;;;;8.88;3.75;;;26.80;50.40;;;;;;5013350;28;20030;-76
2022/08/04 09:07:36;;;;;;;8.98;3.88;;;26.90;50.00;;;;;;5013125;28;20026;-75
2022/08/04 09:10:17;;;;;;;9.23;4.10;;;26.90;49.70;;;;;;5000289;28;20034;-76
2022/08/04 09:12:51;;;;;;;7.43;4.28;;;26.80;50.00;;;;;;4996084;28;20038;-76
2022/08/04 09:15:35;;;;;;;9.27;4.93;;;26.80;50.40;;;;;;5012845;28;20037;-76
2022/08/04 09:18:37;;;;;;;7.22;4.50;;;26.80;50.00;;;;;;4995750;28;20030;-76
2022/08/04 09:21:12;;;;;;;8.73;4.45;;;26.90;50.30;;;;;;5012827;28;20030;-76
2022/08/04 09:23:59;;;;;;;7.07;4.38;;;26.90;50.30;;;;;;4995582;28;20033;-76
2022/08/04 09:26:33;;;;;;;7.85;4.90;;;27.00;49.70;;;;;;4978977;28;20056;-76
2022/08/04 09:29:19;;;;;;;11.48;4.47;;;27.00;50.00;;;;;;5013055;28;20041;-76
2022/08/04 09:31:57;;;;;;;6.88;4.00;;;26.90;50.20;;;;;;5013078;28;20506;-76
2022/08/04 09:34:49;;;;;;;7.55;4.55;;;27.00;49.90;;;;;;4979040;28;20397;-76
2022/08/04 09:37:41;;;;;;;6.57;4.13;;;27.00;49.80;;;;;;4995220;28;20045;-76
2022/08/04 09:40:18;;;;;;;10.25;4.18;;;27.00;49.80;;;;;;4995095;28;20034;-74
2022/08/04 09:43:11;;;;;;;6.53;4.10;;;27.00;49.20;;;;;;4995096;28;20030;-75
2022/08/04 09:45:58;;;;;;;10.52;4.43;;;27.00;49.70;;;;;;5012280;28;20033;-76
2022/08/04 09:48:45;;;;;;;6.70;3.97;;;26.90;50.00;;;;;;5012257;28;20026;-76
2022/08/04 09:51:37;;;;;;;8.50;4.38;;;26.90;50.10;;;;;;4978791;28;20556;-76
2022/08/04 09:54:13;;;;;;;8.13;4.30;;;26.90;50.10;;;;;;5002096;28;20373;-76
2022/08/04 09:56:56;;;;;;;5.60;4.10;;;26.90;50.20;;;;;;5012290;28;20033;-75
2022/08/04 09:59:48;;;;;;;8.48;4.50;;;26.90;50.10;;;;;;5012649;28;20490;-75
2022/08/04 10:02:17;;;;;;;8.10;4.65;;;26.90;50.00;;;;;;4958013;28;20041;-76
2022/08/04 10:04:44;;;;;;;8.40;4.00;;;27.00;49.70;;;;;;5012537;28;20057;-75
2022/08/04 10:07:38;;;;;;;7.20;4.50;;;27.20;48.60;;;;;;5012000;28;20372;-75
2022/08/04 10:10:36;;;;;;;7.40;3.90;;;27.20;48.60;;;;;;5011638;28;20077;-76
2022/08/04 10:13:36;;;;;;;6.68;4.05;;;27.10;48.50;;;;;;5011729;28;20022;-76
2022/08/04 10:16:37;;;;;;;7.65;4.00;;;27.20;48.50;;;;;;5011829;28;20101;-76
2022/08/04 10:19:12;;;;;;;7.13;4.03;;;27.20;48.30;;;;;;4897681;29;20055;-75
2022/08/04 10:21:54;;;;;;;6.43;3.80;;;27.20;48.10;;;;;;4983179;28;20044;-75
2022/08/04 10:24:47;;;;;;;5.75;3.83;;;27.30;48.40;;;;;;4994782;28;20032;-77
2022/08/04 10:27:29;;;;;;;7.10;3.65;;;27.30;47.60;;;;;;5011848;28;20040;-75
2022/08/04 10:30:10;;;;;;;7.55;3.25;;;27.30;47.50;;;;;;5012131;28;20060;-76
2022/08/04 10:33:17;;;;;;;5.07;3.33;;;27.40;47.30;;;;;;4994497;28;20026;-76
2022/08/04 10:35:59;;;;;;;6.60;3.30;;;27.40;47.40;;;;;;5011578;28;20111;-76
2022/08/04 10:38:44;;;;;;;6.63;3.85;;;27.30;47.60;;;;;;4994562;28;20040;-76
2022/08/04 10:41:37;;;;;;;7.25;3.80;;;27.30;48.10;;;;;;4994124;28;20030;-76
2022/08/04 10:44:33;;;;;;;6.65;3.38;;;27.30;47.90;;;;;;4994501;28;20030;-76
2022/08/04 10:47:06;;;;;;;7.47;3.85;;;27.30;47.80;;;;;;4994023;28;20407;-76
2022/08/04 10:49:59;;;;;;;4.82;3.35;;;27.50;47.50;;;;;;5012124;28;20060;-76
2022/08/04 10:52:33;;;;;;;5.20;3.40;;;27.50;47.20;;;;;;4993979;28;20042;-76
2022/08/04 10:55:10;;;;;;;4.45;3.42;;;27.40;47.60;;;;;;5012044;28;20034;-76
2022/08/04 10:57:42;;;;;;;5.95;3.97;;;27.40;47.90;;;;;;5011325;28;20427;-77
2022/08/04 11:00:15;;;;;;;5.57;3.72;;;27.40;47.90;;;;;;5011712;28;20105;-77
2022/08/04 11:02:55;;;;;;;5.43;3.72;;;27.30;48.00;;;;;;5011644;28;20030;-77
2022/08/04 11:05:33;;;;;;;7.45;3.70;;;27.30;48.20;;;;;;5011465;28;20030;-77
2022/08/04 11:08:02;;;;;;;7.88;3.90;;;27.30;48.10;;;;;;5012139;28;20124;-76
2022/08/04 11:10:36;;;;;;;4.80;3.75;;;27.30;48.10;;;;;;4994113;28;20026;-76
2022/08/04 11:13:07;;;;;;;7.97;3.92;;;27.30;48.00;;;;;;5011653;28;20424;-75
2022/08/04 11:15:43;;;;;;;7.15;3.58;;;27.30;48.20;;;;;;5011422;28;20029;-76
2022/08/04 11:18:16;;;;;;;7.50;3.70;;;27.30;48.30;;;;;;5011761;28;20464;-76
2022/08/04 11:20:54;;;;;;;8.68;4.55;;;27.40;47.80;;;;;;5011105;28;20034;-76
2022/08/04 11:23:25;;;;;;;6.60;3.85;;;27.40;47.70;;;;;;5013105;28;20439;-78
2022/08/04 11:26:04;;;;;;;7.97;3.90;;;27.40;47.50;;;;;;4997881;28;20029;-77
2022/08/04 11:28:55;;;;;;;7.03;3.60;;;27.50;47.00;;;;;;4997690;28;20397;-78
2022/08/04 11:31:43;;;;;;;7.38;3.53;;;27.50;47.00;;;;;;5015037;28;20175;-77
2022/08/04 11:34:26;;;;;;;9.27;4.20;;;27.50;46.80;;;;;;5015108;28;20107;-77
2022/08/04 11:37:24;;;;;;;7.65;4.00;;;27.70;46.00;;;;;;5014715;28;20041;-77
2022/08/04 11:39:59;;;;;;;9.82;4.15;;;27.70;46.10;;;;;;4997482;28;20022;-77
2022/08/04 11:42:29;;;;;;;9.38;4.43;;;27.60;45.80;;;;;;5015448;28;20292;-78
2022/08/04 11:45:05;;;;;;;8.20;4.70;;;27.70;45.70;;;;;;5014999;28;20037;-76
2022/08/04 11:48:08;;;;;;;9.90;4.78;;;27.80;45.70;;;;;;5014760;28;20436;-78
2022/08/04 11:50:49;;;;;;;7.28;3.67;;;27.70;45.90;;;;;;4993853;28;20042;-77
2022/08/04 11:53:19;;;;;;;10.98;4.10;;;27.70;46.00;;;;;;4997499;28;20397;-76
2022/08/04 11:55:49;;;;;;;6.50;4.10;;;27.50;46.90;;;;;;5014486;28;20474;-77
2022/08/04 11:58:15;;;;;;;;;;;27.50;46.60;;;;;;4997640;28;20103;-77
2022/08/04 12:01:04;;;;;;;16.20;4.70;;;27.50;46.60;;;;;;4980929;28;20377;-77
2022/08/04 12:03:42;;;;;;;5.10;3.60;;;27.50;46.30;;;;;;5014589;28;20026;-78
2022/08/04 12:06:35;;;;;;;5.88;3.40;;;27.60;45.60;;;;;;5014208;28;20044;-78
2022/08/04 12:09:43;;;;;;;6.10;3.35;;;27.60;45.30;;;;;;5014553;28;20037;-78
2022/08/04 12:12:24;;;;;;;7.22;3.78;;;27.80;45.10;;;;;;4996672;28;20406;-77
2022/08/04 12:15:11;;;;;;;7.35;4.18;;;27.70;44.90;;;;;;5014773;28;20432;-78
2022/08/04 12:17:44;;;;;;;9.00;4.28;;;27.80;44.60;;;;;;5014268;28;20088;-76
2022/08/04 12:20:16;;;;;;;5.68;3.70;;;27.70;44.80;;;;;;5014091;28;20045;-77
2022/08/04 12:22:48;;;;;;;5.55;3.63;;;27.60;45.50;;;;;;5014219;28;20113;-77
2022/08/04 12:25:20;;;;;;;11.07;3.53;;;27.60;45.30;;;;;;5014271;28;20037;-77
2022/08/04 12:27:59;;;;;;;7.90;3.35;;;27.50;45.60;;;;;;4996816;28;20042;-77
2022/08/04 12:30:33;;;;;;;5.78;3.53;;;27.60;45.70;;;;;;5014210;28;20026;-76
2022/08/04 12:33:13;;;;;;;11.73;3.72;;;27.60;45.70;;;;;;4996869;28;20064;-77
2022/08/04 12:35:55;;;;;;;7.28;3.85;;;27.60;45.80;;;;;;5012997;28;20037;-77
2022/08/04 12:38:25;;;;;;;6.63;2.97;;;27.60;45.80;;;;;;5014132;28;20430;-77
2022/08/04 12:40:55;;;;;;;9.05;3.22;;;27.70;45.50;;;;;;4996439;28;20585;-77
2022/08/04 12:43:40;;;;;;;3.92;2.63;;;27.70;45.10;;;;;;5013844;28;20076;-77
2022/08/04 12:46:08;;;;;;;6.82;3.40;;;27.80;44.90;;;;;;4995934;28;20449;-77
2022/08/04 12:48:36;;;;;;;5.28;3.30;;;27.70;46.20;;;;;;4995350;28;20042;-77
2022/08/04 12:51:03;;;;;;;5.90;3.53;;;27.70;45.00;;;;;;4980226;28;20084;-77
2022/08/04 12:53:35;;;;;;;6.25;3.35;;;27.70;44.80;;;;;;5013859;28;20018;-77
2022/08/04 12:56:03;;;;;;;8.02;3.33;;;27.70;45.00;;;;;;4979867;28;20041;-77
2022/08/04 12:58:32;;;;;;;6.72;3.72;;;27.60;44.80;;;;;;4995830;28;20363;-77
2022/08/04 13:01:02;;;;;;;5.45;3.38;;;27.70;45.00;;;;;;4995877;28;20034;-77
2022/08/04 13:03:36;;;;;;;5.63;3.50;;;27.70;44.40;;;;;;4995893;28;20474;-77
2022/08/04 13:06:03;;;;;;;6.88;3.50;;;27.70;44.30;;;;;;5013247;28;20414;-77
2022/08/04 13:08:34;;;;;;;8.40;3.05;;;27.70;44.50;;;;;;4995833;28;20057;-78
2022/08/04 13:11:01;;;;;;;7.90;3.20;;;27.70;44.30;;;;;;4979789;28;20038;-78
2022/08/04 13:13:32;;;;;;;9.38;3.08;;;27.80;43.80;;;;;;4995720;28;20046;-78
2022/08/04 13:16:07;;;;;;;5.47;3.28;;;27.90;43.40;;;;;;4995455;28;20140;-77
2022/08/04 13:18:38;;;;;;;8.38;3.60;;;27.90;43.70;;;;;;5013119;28;20034;-77
2022/08/04 13:21:22;;;;;;;6.57;3.42;;;27.70;43.70;;;;;;4979181;28;20486;-78
2022/08/04 13:23:57;;;;;;;4.55;3.20;;;27.70;43.80;;;;;;5013372;28;20113;-78
2022/08/04 13:26:25;;;;;;;6.72;2.95;;;27.70;44.10;;;;;;5012820;28;20449;-78
2022/08/04 13:28:53;;;;;;;5.65;3.03;;;27.60;43.90;;;;;;4995543;28;20021;-79
2022/08/04 13:31:21;;;;;;;6.35;2.65;;;27.90;42.90;;;;;;5013232;28;20030;-79
2022/08/04 13:33:53;;;;;;;6.00;3.10;;;27.90;42.70;;;;;;5012899;28;20026;-78
2022/08/04 13:36:24;;;;;;;10.07;3.70;;;27.80;42.90;;;;;;4978974;28;20163;-78
2022/08/04 13:38:53;;;;;;;6.20;3.17;;;27.80;43.30;;;;;;4995330;28;20033;-78
2022/08/04 13:41:21;;;;;;;5.85;3.30;;;27.80;42.80;;;;;;5012718;28;20030;-78